Time;durP1;ratioP1;P1;durP2;ratioP2;P2;SDS_P1;SDS_P2;PMS_P1;PMS_P2;Temp;Humidity;BMP_temperature;BMP_pressure;BME280_temperature;BME280_humidity;BME280_pressure;Samples;Min_cycle;Max_cycle;Signal;HPM_P1;HPM_P2
2022/01/28 00:01:08;;;;;;;8.20;2.97;;;;;;;3.52;100.00;99118.50;5032259;28;20060;-78
2022/01/28 00:03:40;;;;;;;7.15;3.88;;;;;;;3.59;100.00;99129.50;5015698;28;20108;-78
2022/01/28 00:06:08;;;;;;;4.80;3.00;;;;;;;3.57;100.00;99121.81;4999998;28;20073;-78
2022/01/28 00:08:34;;;;;;;8.05;3.53;;;;;;;3.60;100.00;99120.88;5032027;28;20541;-78
2022/01/28 00:11:05;;;;;;;6.93;3.45;;;;;;;3.60;100.00;99114.00;5031750;28;20091;-78
2022/01/28 00:13:37;;;;;;;;;;;;;;;3.65;100.00;99113.88;5015459;28;20045;-78
2022/01/28 00:40:15;;;;;;;10.07;3.25;;;;;;;2.93;100.00;99106.28;5033749;28;20037;-78
2022/01/28 00:42:41;;;;;;;8.30;2.95;;;;;;;2.86;100.00;99103.88;5030715;28;20047;-78
2022/01/28 00:45:07;;;;;;;9.30;3.72;;;;;;;2.92;100.00;99122.59;5031189;28;20468;-78
2022/01/28 00:47:32;;;;;;;7.55;2.78;;;;;;;2.84;100.00;99109.06;5031041;28;20060;-78
2022/01/28 00:49:57;;;;;;;9.77;3.20;;;;;;;2.84;100.00;99098.78;5030722;28;20025;-78
2022/01/28 00:52:23;;;;;;;6.80;2.85;;;;;;;2.91;100.00;99110.63;5030898;28;20120;-78
2022/01/28 00:54:48;;;;;;;4.57;2.45;;;;;;;2.92;100.00;99112.31;5030637;28;20571;-78
2022/01/28 00:57:14;;;;;;;7.63;3.15;;;;;;;2.85;100.00;99102.19;5030933;28;20495;-78
2022/01/28 00:59:39;;;;;;;6.53;2.92;;;;;;;2.90;100.00;99114.06;5013972;28;20033;-78
2022/01/28 01:02:06;;;;;;;11.27;2.85;;;;;;;2.97;100.00;99127.63;5030829;28;20091;-78
2022/01/28 01:04:32;;;;;;;7.15;2.55;;;;;;;2.90;100.00;99111.50;5014062;28;20077;-78
2022/01/28 01:06:57;;;;;;;9.13;2.92;;;;;;;3.02;100.00;99109.50;5030392;28;20068;-78
2022/01/28 01:09:23;;;;;;;10.13;3.05;;;;;;;3.09;100.00;99111.06;5030644;28;20029;-78
2022/01/28 01:11:48;;;;;;;6.22;2.67;;;;;;;3.04;100.00;99111.16;5030340;28;20400;-78
2022/01/28 01:14:14;;;;;;;12.10;3.30;;;;;;;3.13;100.00;99104.94;5030460;28;20052;-78
2022/01/28 01:17:00;;;;;;;13.48;3.33;;;;;;;3.21;100.00;99119.31;5030223;28;20021;-78
2022/01/28 01:19:29;;;;;;;7.55;3.10;;;;;;;3.22;100.00;99105.56;5030987;28;20100;-78
2022/01/28 01:21:58;;;;;;;10.05;3.15;;;;;;;3.20;100.00;99107.34;5032657;28;20524;-78
2022/01/28 01:24:26;;;;;;;10.60;3.13;;;;;;;3.19;100.00;99107.34;5032927;28;20363;-78
2022/01/28 01:26:52;;;;;;;10.55;2.90;;;;;;;3.30;100.00;99107.09;5031032;28;20025;-78
2022/01/28 01:29:22;;;;;;;7.95;2.63;;;;;;;3.29;100.00;99116.56;5031387;28;20239;-78
2022/01/28 01:31:48;;;;;;;5.55;2.40;;;;;;;3.22;100.00;99091.84;5032130;28;20033;-78
2022/01/28 01:34:22;;;;;;;6.95;2.28;;;;;;;3.35;100.00;99116.38;5031270;28;20040;-77
2022/01/28 01:36:48;;;;;;;6.80;2.42;;;;;;;3.25;100.00;99099.50;5031170;28;20032;-78
2022/01/28 01:39:20;;;;;;;9.82;2.92;;;;;;;3.32;100.00;99118.19;5014870;28;20025;-78
2022/01/28 01:41:54;;;;;;;7.88;3.20;;;;;;;3.26;100.00;99101.19;5030867;28;20065;-78
2022/01/28 01:52:22;;;;;;;3.40;2.38;;;;;;;3.27;100.00;99107.16;5032560;28;20547;-78
2022/01/28 01:54:50;;;;;;;5.57;2.60;;;;;;;3.27;100.00;99102.00;5032134;28;20033;-78
2022/01/28 01:57:17;;;;;;;4.45;2.00;;;;;;;3.35;100.00;99113.81;5031130;28;20774;-78
2022/01/28 01:59:43;;;;;;;6.72;2.25;;;;;;;3.37;100.00;99119.78;5030815;28;20032;-78
2022/01/28 02:02:09;;;;;;;6.70;2.47;;;;;;;3.32;100.00;99100.16;5032039;28;20026;-78
2022/01/28 02:04:37;;;;;;;8.73;2.70;;;;;;;3.43;100.00;99093.84;5022341;28;20050;-78
2022/01/28 02:07:04;;;;;;;8.43;3.20;;;;;;;3.43;100.00;99109.31;4994427;28;20040;-78
2022/01/28 02:09:30;;;;;;;6.95;2.85;;;;;;;3.31;100.00;99093.34;5012478;28;20528;-78
2022/01/28 02:11:55;;;;;;;11.88;3.58;;;;;;;3.40;100.00;99104.22;5012206;28;20026;-78
2022/01/28 02:14:21;;;;;;;8.90;2.90;;;;;;;3.37;100.00;99083.75;4994658;28;20038;-78
2022/01/28 02:16:47;;;;;;;9.32;2.20;;;;;;;3.33;100.00;99101.84;4993411;28;20041;-78
2022/01/28 02:19:14;;;;;;;6.05;2.75;;;;;;;3.30;100.00;99102.78;5012328;28;20095;-78
2022/01/28 02:21:47;;;;;;;7.38;2.50;;;;;;;3.31;100.00;99107.03;5012006;28;20101;-78
2022/01/28 02:24:16;;;;;;;6.55;2.58;;;;;;;3.31;100.00;99101.06;5009453;28;20121;-78
2022/01/28 02:26:41;;;;;;;12.48;2.88;;;;;;;3.29;100.00;99105.38;5012237;28;20026;-78
2022/01/28 02:29:14;;;;;;;7.90;2.30;;;;;;;3.25;100.00;99105.47;5011982;28;20076;-78
2022/01/28 02:31:40;;;;;;;7.32;2.22;;;;;;;3.33;100.00;99110.44;5012149;28;20114;-78
2022/01/28 02:34:09;;;;;;;8.30;2.30;;;;;;;3.33;100.00;99120.72;5011796;28;20038;-78
2022/01/28 02:36:36;;;;;;;9.60;2.60;;;;;;;3.28;100.00;99119.13;5012129;28;20026;-78
2022/01/28 02:39:03;;;;;;;10.13;3.05;;;;;;;3.24;100.00;99100.34;5012147;28;20096;-78
2022/01/28 02:41:34;;;;;;;9.73;2.33;;;;;;;3.33;100.00;99127.59;5016002;28;20065;-78
2022/01/28 02:46:37;;;;;;;8.25;2.70;;;;;;;3.20;100.00;99120.19;5015851;28;20038;-78
2022/01/28 02:49:08;;;;;;;6.90;2.45;;;;;;;3.07;100.00;99105.09;5015846;28;20034;-78
2022/01/28 02:51:35;;;;;;;8.70;3.65;;;;;;;3.12;100.00;99118.69;5015751;28;20662;-78
2022/01/28 02:54:11;;;;;;;8.75;2.50;;;;;;;3.17;100.00;99135.72;5015585;28;20108;-78
2022/01/28 02:56:39;;;;;;;6.70;3.03;;;;;;;3.17;100.00;99129.72;5015828;28;20060;-78
2022/01/28 02:59:06;;;;;;;11.98;3.17;;;;;;;3.03;100.00;99118.91;5015385;28;20069;-78
2022/01/28 03:01:33;;;;;;;9.02;2.38;;;;;;;3.16;100.00;99153.75;5015995;28;20029;-78
2022/01/28 03:04:02;;;;;;;8.00;2.35;;;;;;;2.97;100.00;99133.63;5002686;28;20049;-78
2022/01/28 03:06:27;;;;;;;10.57;2.70;;;;;;;3.08;100.00;99143.66;5032987;28;20045;-78
2022/01/28 03:09:07;;;;;;;13.90;2.83;;;;;;;3.10;100.00;99144.44;5033022;28;20044;-78
2022/01/28 03:17:01;;;;;;;7.97;2.88;;;;;;;3.03;100.00;99166.06;5032511;28;20026;-78
2022/01/28 03:19:40;;;;;;;7.68;2.90;;;;;;;2.99;100.00;99159.28;5032618;28;20056;-78
2022/01/28 03:22:05;;;;;;;8.18;2.90;;;;;;;3.02;100.00;99174.66;5032351;28;20025;-78
2022/01/28 03:24:31;;;;;;;8.32;3.03;;;;;;;3.02;100.00;99173.81;5032823;28;20052;-78
2022/01/28 03:27:02;;;;;;;10.38;2.47;;;;;;;2.92;100.00;99160.34;5032292;28;20025;-78
2022/01/28 03:29:28;;;;;;;8.23;3.10;;;;;;;3.00;100.00;99174.72;5015914;28;20037;-78
2022/01/28 03:31:54;;;;;;;8.13;3.10;;;;;;;2.99;100.00;99177.31;5015653;28;20788;-77
2022/01/28 03:34:19;;;;;;;7.45;3.53;;;;;;;2.92;100.00;99152.63;5032913;28;20044;-78
2022/01/28 03:36:44;;;;;;;10.95;4.07;;;;;;;2.99;100.00;99190.16;5032119;28;20508;-78
2022/01/28 03:39:11;;;;;;;6.57;2.97;;;;;;;2.99;100.00;99193.59;5032121;28;20044;-78
2022/01/28 03:41:37;;;;;;;11.65;3.53;;;;;;;2.90;100.00;99175.78;5032316;28;20080;-78
2022/01/28 03:44:03;;;;;;;9.35;3.42;;;;;;;2.74;100.00;99164.19;5032125;28;20033;-78
2022/01/28 03:46:30;;;;;;;11.35;3.22;;;;;;;2.95;100.00;99201.41;4992661;28;20045;-78
2022/01/28 03:48:55;;;;;;;7.55;2.90;;;;;;;3.06;100.00;99201.16;4976062;28;20046;-78
2022/01/28 03:51:22;;;;;;;9.38;3.20;;;;;;;3.06;100.00;99207.16;4992403;28;20401;-78
2022/01/28 03:53:49;;;;;;;8.07;2.75;;;;;;;3.03;100.00;99208.94;4992694;28;20043;-78
2022/01/28 03:56:15;;;;;;;14.32;3.70;;;;;;;3.06;100.00;99212.31;4992660;28;20042;-78
2022/01/28 03:58:41;;;;;;;15.38;3.72;;;;;;;2.96;100.00;99198.81;4992528;28;20049;-77
2022/01/28 04:01:14;;;;;;;7.70;3.17;;;;;;;2.98;100.00;99197.03;4992253;28;20038;-78
2022/01/28 04:03:47;;;;;;;11.55;3.58;;;;;;;3.02;100.00;99210.69;4992159;28;20042;-78
2022/01/28 04:11:33;;;;;;;9.48;3.08;;;;;;;2.93;100.00;99224.59;5012254;28;20641;-78
2022/01/28 04:19:30;;;;;;;17.13;4.40;;;;;;;2.92;100.00;99225.50;5011957;28;20103;-78
2022/01/28 04:21:55;;;;;;;9.82;3.33;;;;;;;2.92;100.00;99234.94;5011610;28;20508;-78
2022/01/28 04:24:21;;;;;;;8.05;2.90;;;;;;;2.83;100.00;99212.00;5026559;28;20075;-78
2022/01/28 04:26:47;;;;;;;13.10;3.38;;;;;;;2.92;100.00;99233.22;5033667;28;20511;-78
2022/01/28 04:29:13;;;;;;;9.75;3.55;;;;;;;2.90;100.00;99223.81;5033732;28;20481;-77
2022/01/28 04:31:42;;;;;;;14.13;4.15;;;;;;;2.88;100.00;99226.44;5031104;28;20068;-78
2022/01/28 04:34:11;;;;;;;9.82;3.10;;;;;;;2.82;100.00;99218.00;5014481;28;20070;-78
2022/01/28 04:36:48;;;;;;;9.75;2.78;;;;;;;3.04;100.00;99237.25;5031161;28;20072;-78
2022/01/28 04:42:09;;;;;;;13.75;3.60;;;;;;;3.04;100.00;99228.69;5031046;28;20107;-78
2022/01/28 04:52:40;;;;;;;13.32;3.75;;;;;;;3.16;100.00;99254.09;5030622;28;20121;-78
2022/01/28 05:00:31;;;;;;;12.52;3.78;;;;;;;3.21;100.00;99273.72;5030637;28;20100;-77
2022/01/28 05:14:02;;;;;;;9.57;3.20;;;;;;;3.32;100.00;99282.91;5013342;28;20092;-78
2022/01/28 05:27:01;;;;;;;12.48;2.97;;;;;;;3.37;100.00;99319.69;5012742;28;20117;-78
2022/01/28 05:29:26;;;;;;;9.18;2.83;;;;;;;3.27;100.00;99288.16;5013083;28;20022;-78
2022/01/28 05:31:53;;;;;;;13.27;3.72;;;;;;;3.40;100.00;99310.16;5013147;28;20512;-78
2022/01/28 05:34:19;;;;;;;14.57;3.00;;;;;;;3.40;100.00;99314.47;5012763;28;20034;-78
2022/01/28 05:36:45;;;;;;;13.80;3.47;;;;;;;3.33;100.00;99308.63;5012827;28;20535;-78
2022/01/28 05:39:16;;;;;;;12.50;3.53;;;;;;;3.37;100.00;99312.84;4994848;28;20064;-78
2022/01/28 05:41:41;;;;;;;9.90;3.30;;;;;;;3.34;100.00;99312.06;5012574;28;20036;-78
2022/01/28 05:44:07;;;;;;;11.13;3.30;;;;;;;3.39;100.00;99334.22;5012712;28;20026;-78
2022/01/28 05:46:32;;;;;;;11.15;3.55;;;;;;;3.34;100.00;99325.75;5012820;28;20049;-78
2022/01/28 05:48:58;;;;;;;11.15;3.10;;;;;;;3.30;100.00;99315.56;5012373;28;20041;-78
2022/01/28 05:51:25;;;;;;;12.55;3.38;;;;;;;3.33;100.00;99334.38;5012655;28;20470;-78
2022/01/28 05:53:51;;;;;;;10.43;3.30;;;;;;;3.32;100.00;99360.97;5012573;28;20053;-79
2022/01/28 05:56:16;;;;;;;9.32;3.85;;;;;;;3.32;100.00;99331.81;4994544;28;20053;-78
2022/01/28 05:58:41;;;;;;;11.23;3.30;;;;;;;3.20;100.00;99318.34;5012695;28;20040;-78
2022/01/28 06:01:07;;;;;;;11.15;3.70;;;;;;;3.34;100.00;99351.50;5012070;28;20409;-78
2022/01/28 06:03:32;;;;;;;13.43;4.32;;;;;;;3.33;100.00;99369.53;5012312;28;20022;-78
2022/01/28 06:05:57;;;;;;;18.08;4.22;;;;;;;3.18;100.00;99330.41;5012237;28;20397;-78
2022/01/28 06:08:25;;;;;;;14.85;5.15;;;;;;;3.34;100.00;99374.69;4994709;28;20173;-78
2022/01/28 06:10:50;;;;;;;12.27;3.83;;;;;;;3.29;100.00;99370.47;5012231;28;20069;-78
2022/01/28 06:13:16;;;;;;;11.75;4.05;;;;;;;3.33;100.00;99361.81;5011935;28;20496;-76
2022/01/28 06:15:43;;;;;;;9.95;3.72;;;;;;;3.33;100.00;99373.00;5011836;28;20061;-76
2022/01/28 06:18:10;;;;;;;9.82;3.35;;;;;;;3.32;100.00;99355.81;4994507;28;20044;-76
2022/01/28 06:20:37;;;;;;;13.02;4.03;;;;;;;3.35;100.00;99365.22;5012155;28;20084;-76
2022/01/28 06:23:04;;;;;;;13.55;3.97;;;;;;;3.38;100.00;99358.28;4994296;28;20041;-76
2022/01/28 06:25:31;;;;;;;8.68;3.53;;;;;;;3.46;100.00;99378.72;5012078;28;20026;-76
2022/01/28 06:27:58;;;;;;;15.73;3.78;;;;;;;3.42;100.00;99374.50;5012318;28;20084;-76
2022/01/28 06:30:25;;;;;;;11.95;3.45;;;;;;;3.48;100.00;99374.38;4993499;28;20061;-76
2022/01/28 06:32:50;;;;;;;15.52;3.78;;;;;;;3.62;100.00;99398.06;5012072;28;20066;-76
2022/01/28 06:35:16;;;;;;;15.82;4.30;;;;;;;3.55;100.00;99375.94;5011703;28;20029;-76
2022/01/28 06:37:45;;;;;;;12.35;3.72;;;;;;;3.68;100.00;99404.81;5011890;28;20478;-76
2022/01/28 06:40:15;;;;;;;10.25;2.97;;;;;;;3.67;100.00;99400.56;5022539;28;20033;-76
2022/01/28 06:42:43;;;;;;;14.07;3.60;;;;;;;3.65;100.00;99394.59;5031619;28;20461;-76
2022/01/28 06:45:09;;;;;;;12.18;3.40;;;;;;;3.73;100.00;99413.28;5027849;28;20076;-76
2022/01/28 06:47:36;;;;;;;9.75;3.38;;;;;;;3.63;100.00;99391.22;4970401;28;20442;-76
2022/01/28 06:50:08;;;;;;;13.52;3.72;;;;;;;3.57;100.00;99396.50;4970303;28;20043;-76
2022/01/28 06:52:37;;;;;;;10.30;3.95;;;;;;;3.75;100.00;99425.28;4952276;28;20051;-76
2022/01/28 06:55:04;;;;;;;10.13;3.15;;;;;;;3.74;100.00;99408.09;4989638;28;20057;-76
2022/01/28 06:57:30;;;;;;;10.85;3.47;;;;;;;3.82;100.00;99428.53;4989758;28;20042;-76
2022/01/28 06:59:57;;;;;;;13.02;4.20;;;;;;;3.74;100.00;99417.56;4971539;28;20050;-77
2022/01/28 07:02:23;;;;;;;17.25;4.35;;;;;;;3.79;100.00;99425.19;4970036;28;20471;-77
2022/01/28 07:04:50;;;;;;;13.43;4.10;;;;;;;3.78;100.00;99433.78;4981663;28;20085;-78
2022/01/28 07:07:17;;;;;;;16.05;3.80;;;;;;;3.78;100.00;99437.22;4973326;28;20491;-76
2022/01/28 07:09:43;;;;;;;8.90;3.42;;;;;;;3.73;100.00;99421.03;4989730;28;20039;-75
2022/01/28 07:12:10;;;;;;;12.02;3.67;;;;;;;3.80;100.00;99442.34;4989456;28;20105;-76
2022/01/28 07:14:35;;;;;;;11.18;3.65;;;;;;;3.73;100.00;99433.91;4984997;28;20034;-77
2022/01/28 07:17:03;;;;;;;9.13;3.55;;;;;;;3.70;100.00;99431.38;4989426;28;20093;-77
2022/01/28 07:19:31;;;;;;;16.30;3.90;;;;;;;3.53;100.00;99400.84;4989725;28;20045;-76
2022/01/28 07:22:01;;;;;;;11.38;3.92;;;;;;;3.70;100.00;99434.81;4989642;28;20030;-76
2022/01/28 07:24:27;;;;;;;10.43;3.75;;;;;;;3.68;100.00;99422.84;4995438;28;20045;-76
2022/01/28 07:26:53;;;;;;;16.80;4.28;;;;;;;3.70;100.00;99431.38;5014794;28;20072;-76
2022/01/28 07:29:19;;;;;;;16.58;5.82;;;;;;;3.77;100.00;99447.56;5015164;28;20029;-77
2022/01/28 07:31:46;;;;;;;10.10;4.10;;;;;;;3.67;100.00;99442.63;5015352;28;20033;-77
2022/01/28 07:34:13;;;;;;;16.27;4.10;;;;;;;3.67;100.00;99436.63;5014985;28;20536;-77
2022/01/28 07:36:39;;;;;;;13.55;4.45;;;;;;;3.76;100.00;99457.03;4992873;28;20176;-77
2022/01/28 07:39:07;;;;;;;15.95;5.05;;;;;;;3.76;100.00;99454.44;4992847;28;20088;-77
2022/01/28 07:41:37;;;;;;;16.73;5.32;;;;;;;3.83;100.00;99468.88;4976388;28;20050;-76
2022/01/28 07:44:03;;;;;;;17.45;4.55;;;;;;;3.73;100.00;99465.66;4976383;28;20418;-76
2022/01/28 07:46:29;;;;;;;17.45;5.57;;;;;;;3.77;100.00;99486.19;4992727;28;20516;-76
2022/01/28 07:48:56;;;;;;;16.45;4.70;;;;;;;3.82;100.00;99487.78;4992722;28;20078;-76
2022/01/28 07:51:38;;;;;;;18.25;4.20;;;;;;;3.70;100.00;99480.31;4992552;28;20065;-76
2022/01/28 07:54:14;;;;;;;15.27;5.60;;;;;;;3.79;100.00;99511.03;4976524;28;20042;-76
2022/01/28 07:56:40;;;;;;;13.48;4.32;;;;;;;3.68;100.00;99475.22;4992594;28;20418;-76
2022/01/28 07:59:08;;;;;;;10.50;3.55;;;;;;;3.69;100.00;99500.09;4992273;28;20034;-77
2022/01/28 08:01:33;;;;;;;18.45;5.28;;;;;;;3.77;100.00;99493.94;4982191;28;20030;-77
2022/01/28 08:04:01;;;;;;;16.58;4.85;;;;;;;3.69;100.00;99512.13;5004939;28;20048;-77
2022/01/28 08:06:28;;;;;;;20.10;7.03;;;;;;;3.68;100.00;99511.28;5024430;28;20052;-77
2022/01/28 08:08:56;;;;;;;19.45;5.03;;;;;;;3.74;100.00;99525.75;5013582;28;20137;-77
2022/01/28 08:11:23;;;;;;;18.63;4.55;;;;;;;3.76;100.00;99549.75;5017570;28;20069;-76
2022/01/28 08:13:50;;;;;;;18.17;4.95;;;;;;;3.77;100.00;99550.59;4975225;28;20068;-77
2022/01/28 08:16:15;;;;;;;17.58;5.03;;;;;;;3.74;100.00;99549.75;5034226;28;20040;-76
2022/01/28 08:18:43;;;;;;;14.90;4.50;;;;;;;3.69;100.00;99533.56;5032833;28;20033;-77
2022/01/28 08:21:19;;;;;;;12.32;4.30;;;;;;;3.61;100.00;99553.47;5033663;28;20043;-77
2022/01/28 08:23:48;;;;;;;14.35;4.28;;;;;;;3.64;100.00;99571.44;5033959;28;20087;-77
2022/01/28 08:26:14;;;;;;;14.00;3.97;;;;;;;3.62;100.00;99573.19;5032304;28;20025;-76
2022/01/28 08:28:42;;;;;;;12.13;4.40;;;;;;;3.68;100.00;99587.69;5033979;28;20144;-76
2022/01/28 08:31:12;;;;;;;13.70;4.10;;;;;;;3.67;100.00;99586.84;5011067;28;20679;-76
2022/01/28 08:33:40;;;;;;;10.70;4.03;;;;;;;3.66;100.00;99590.28;5011441;28;20073;-76
2022/01/28 08:36:07;;;;;;;11.23;3.83;;;;;;;3.58;100.00;99576.72;5010949;28;20679;-77
2022/01/28 08:38:44;;;;;;;17.88;4.20;;;;;;;3.65;100.00;99609.19;5010466;28;20037;-76
2022/01/28 08:41:21;;;;;;;12.70;4.47;;;;;;;3.64;100.00;99611.81;5010968;28;20045;-76
2022/01/28 08:43:46;;;;;;;14.95;4.88;;;;;;;3.64;100.00;99602.34;5011542;28;20121;-76
2022/01/28 08:46:12;;;;;;;14.48;4.35;;;;;;;3.72;100.00;99599.63;5011381;28;20157;-76
2022/01/28 08:49:01;;;;;;;17.83;4.63;;;;;;;3.80;100.00;99625.25;5008756;28;20038;-76
2022/01/28 08:51:26;;;;;;;14.15;5.35;;;;;;;3.70;100.00;99607.38;4952522;29;20043;-76
2022/01/28 08:54:11;;;;;;;24.40;9.40;;;;;;;3.67;100.00;99614.34;4933418;29;20669;-76
2022/01/28 08:56:49;;;;;;;18.08;5.55;;;;;;;3.67;100.00;99625.50;4933547;29;20134;-76
2022/01/28 08:59:14;;;;;;;14.48;7.78;;;;;;;3.75;100.00;99639.06;4917273;29;20036;-76
2022/01/28 09:01:39;;;;;;;14.93;5.70;;;;;;;3.73;100.00;99653.69;4945217;28;20046;-76
2022/01/28 09:04:05;;;;;;;17.67;5.65;;;;;;;3.61;100.00;99635.88;4971502;28;20097;-76
2022/01/28 09:06:30;;;;;;;23.88;7.05;;;;;;;3.75;100.00;99656.25;4972153;28;20046;-76
2022/01/28 09:08:59;;;;;;;20.42;6.30;;;;;;;3.75;100.00;99669.13;4971971;28;20050;-76
2022/01/28 09:13:52;;;;;;;20.15;8.75;;;;;;;3.73;100.00;99658.00;4971736;28;20034;-76
2022/01/28 09:16:18;;;;;;;15.30;5.75;;;;;;;3.85;100.00;99670.66;4971448;28;20133;-76
2022/01/28 09:18:44;;;;;;;14.07;4.85;;;;;;;3.91;100.00;99654.22;4971672;28;20171;-77
2022/01/28 09:21:10;;;;;;;15.38;5.90;;;;;;;3.83;100.00;99668.97;4971278;28;20034;-77
2022/01/28 09:23:35;;;;;;;22.45;7.72;;;;;;;3.80;100.00;99672.47;5023914;28;20037;-76
2022/01/28 09:26:02;;;;;;;29.70;9.23;;;;;;;3.88;100.00;99698.09;5049123;28;20468;-77
2022/01/28 09:28:27;;;;;;;92.95;28.23;;;;;;;3.89;100.00;99700.63;5051071;28;20032;-76
2022/01/28 09:30:52;;;;;;;37.38;12.65;;;;;;;3.85;100.00;99695.56;5052705;28;20469;-76
2022/01/28 09:33:18;;;;;;;23.15;7.82;;;;;;;3.91;100.00;99706.59;5052512;28;20444;-77
2022/01/28 09:35:44;;;;;;;38.72;17.75;;;;;;;3.91;100.00;99704.03;5051288;28;20555;-76
2022/01/28 09:38:11;;;;;;;36.35;15.55;;;;;;;4.09;100.00;99726.03;5052164;28;20017;-77
2022/01/28 09:40:37;;;;;;;40.85;21.38;;;;;;;4.09;100.00;99712.28;5052352;28;20029;-76
2022/01/28 09:43:05;;;;;;;39.60;21.15;;;;;;;4.04;100.00;99712.38;5050872;28;20510;-76
2022/01/28 09:45:31;;;;;;;30.83;15.60;;;;;;;4.03;100.00;99702.94;5052211;28;20037;-76
2022/01/28 09:48:00;;;;;;;24.50;10.25;;;;;;;4.11;100.00;99731.16;5052568;28;20029;-77
2022/01/28 09:50:28;;;;;;;22.95;8.38;;;;;;;4.06;100.00;99723.50;5050899;28;20082;-76
2022/01/28 09:52:55;;;;;;;24.10;9.38;;;;;;;4.15;100.00;99738.81;5052536;28;20059;-77
2022/01/28 09:55:22;;;;;;;17.73;6.95;;;;;;;4.11;100.00;99736.31;5051981;28;20104;-77
2022/01/28 09:58:02;;;;;;;24.25;5.22;;;;;;;4.01;100.00;99740.78;5052008;28;20025;-77
2022/01/28 10:00:29;;;;;;;26.05;7.88;;;;;;;4.03;100.00;99751.91;5052042;28;20036;-76
2022/01/28 10:03:08;;;;;;;21.55;6.57;;;;;;;4.07;100.00;99766.44;5052000;28;20470;-76
2022/01/28 10:05:51;;;;;;;18.88;7.68;;;;;;;4.03;100.00;99757.06;5039076;28;20642;-77
2022/01/28 10:08:19;;;;;;;17.27;7.05;;;;;;;4.16;100.00;99784.31;5031462;28;20049;-76
2022/01/28 10:10:44;;;;;;;22.02;7.32;;;;;;;4.18;100.00;99787.72;5032177;28;20029;-76
2022/01/28 10:13:14;;;;;;;18.30;6.85;;;;;;;4.19;100.00;99793.72;5031881;28;20392;-76
2022/01/28 10:15:57;;;;;;;19.48;6.47;;;;;;;4.12;100.00;99790.41;5032047;28;20030;-76
2022/01/28 10:18:37;;;;;;;25.92;9.43;;;;;;;4.06;100.00;99781.94;5031717;28;20032;-77
2022/01/28 10:21:14;;;;;;;24.50;8.68;;;;;;;4.19;100.00;99815.19;5014370;28;20033;-76
2022/01/28 10:23:39;;;;;;;26.45;8.30;;;;;;;4.18;100.00;99812.66;5031967;28;20038;-77
2022/01/28 10:26:05;;;;;;;22.65;8.45;;;;;;;4.10;100.00;99784.44;5031807;28;20102;-77
2022/01/28 10:28:33;;;;;;;21.30;7.45;;;;;;;4.34;100.00;99816.66;5031869;28;20026;-77
2022/01/28 10:31:03;;;;;;;22.42;6.45;;;;;;;4.44;100.00;99805.28;5031897;28;20026;-77
2022/01/28 10:33:29;;;;;;;18.48;6.20;;;;;;;4.57;100.00;99810.22;5031479;28;20492;-77
2022/01/28 10:36:00;;;;;;;18.05;5.72;;;;;;;4.62;100.00;99816.13;5031775;28;20033;-77
2022/01/28 10:38:36;;;;;;;17.92;6.32;;;;;;;4.63;100.00;99810.06;5031461;28;20034;-77
2022/01/28 10:41:13;;;;;;;15.82;6.20;;;;;;;4.61;100.00;99804.09;5028476;28;20042;-77
2022/01/28 10:43:50;;;;;;;19.25;6.72;;;;;;;4.76;100.00;99837.31;5031590;28;20030;-77
2022/01/28 10:46:27;;;;;;;14.18;4.70;;;;;;;4.79;100.00;99836.41;5031740;28;20044;-77
2022/01/28 10:48:53;;;;;;;19.30;6.43;;;;;;;4.80;100.00;99836.38;5031853;28;20441;-77
2022/01/28 10:51:21;;;;;;;24.13;7.07;;;;;;;4.70;100.00;99829.72;5031439;28;20037;-77
2022/01/28 10:54:04;;;;;;;22.15;5.90;;;;;;;4.80;100.00;99843.28;5031837;28;20551;-77
2022/01/28 10:56:29;;;;;;;15.88;4.82;;;;;;;4.81;100.00;99845.84;5031540;28;20033;-77
2022/01/28 10:58:56;;;;;;;21.25;6.32;;;;;;;4.85;100.00;99844.91;5031706;28;20028;-77
2022/01/28 11:01:24;;;;;;;18.70;5.75;;;;;;;4.82;100.00;99836.38;5016186;28;20407;-77
2022/01/28 11:03:50;;;;;;;16.92;4.68;;;;;;;4.86;100.00;99862.09;5035498;28;20418;-77
2022/01/28 11:06:16;;;;;;;13.38;5.65;;;;;;;4.88;100.00;99864.63;5034986;28;20227;-77
2022/01/28 11:08:45;;;;;;;17.92;5.40;;;;;;;4.84;100.00;99850.94;5035165;28;20033;-77
2022/01/28 11:11:11;;;;;;;15.85;5.40;;;;;;;4.74;100.00;99828.78;5035181;28;20104;-77
2022/01/28 11:13:37;;;;;;;16.98;6.15;;;;;;;4.91;100.00;99862.00;5017553;28;20116;-77
2022/01/28 11:16:04;;;;;;;17.88;5.70;;;;;;;4.78;100.00;99848.47;5004955;28;20112;-77
2022/01/28 11:18:30;;;;;;;21.58;6.30;;;;;;;4.84;100.00;99855.25;5019479;28;20047;-77
2022/01/28 11:21:13;;;;;;;16.75;5.80;;;;;;;4.86;100.00;99862.09;5035358;28;20037;-75
2022/01/28 11:23:38;;;;;;;19.30;5.95;;;;;;;4.92;100.00;99879.16;5035134;28;20118;-77
2022/01/28 11:26:37;;;;;;;21.25;5.88;;;;;;;4.84;100.00;99874.16;5035107;28;20113;-77
2022/01/28 11:29:20;;;;;;;20.70;7.70;;;;;;;4.77;100.00;99861.41;5035181;28;20025;-77
2022/01/28 11:31:54;;;;;;;18.42;5.90;;;;;;;4.73;100.00;99869.22;5034712;28;20033;-77
2022/01/28 11:34:25;;;;;;;23.90;7.40;;;;;;;4.79;100.00;99881.13;5016980;28;20424;-77
2022/01/28 11:36:56;;;;;;;;;;;;;;;4.81;100.00;99896.63;5035240;28;20035;-76
2022/01/28 11:39:40;;;;;;;28.70;8.82;;;;;;;4.78;100.00;99886.34;5034676;28;19909;-77
2022/01/28 11:42:17;;;;;;;18.52;6.28;;;;;;;4.69;100.00;99879.63;5012126;28;20034;-76
2022/01/28 11:45:03;;;;;;;14.48;5.50;;;;;;;4.79;100.00;99898.34;5012412;28;20070;-76
2022/01/28 11:47:35;;;;;;;21.65;8.50;;;;;;;4.68;100.00;99873.63;5012058;28;20549;-76
2022/01/28 11:50:18;;;;;;;24.02;9.00;;;;;;;4.74;100.00;99888.97;5012418;28;20034;-77
2022/01/28 11:52:53;;;;;;;24.05;7.70;;;;;;;4.80;100.00;99902.63;5012333;28;20045;-77
2022/01/28 11:55:21;;;;;;;23.02;7.80;;;;;;;4.88;100.00;99917.09;5012403;28;20410;-77
2022/01/28 11:58:08;;;;;;;25.30;8.48;;;;;;;4.90;100.00;99924.81;5012250;28;20113;-77
2022/01/28 12:00:41;;;;;;;19.38;6.55;;;;;;;4.78;100.00;99910.41;4979288;28;20037;-77
2022/01/28 12:03:30;;;;;;;19.95;6.93;;;;;;;4.79;100.00;99914.69;5011996;28;20034;-77
2022/01/28 12:05:57;;;;;;;18.55;6.70;;;;;;;4.85;100.00;99942.13;5011928;28;20133;-77
2022/01/28 12:08:27;;;;;;;15.25;6.35;;;;;;;4.81;100.00;99935.31;5011758;28;20470;-77
2022/01/28 12:10:54;;;;;;;19.50;7.15;;;;;;;4.71;100.00;99917.41;4995578;28;20034;-76
2022/01/28 12:13:31;;;;;;;22.52;9.35;;;;;;;4.81;100.00;99943.91;4981433;28;20112;-76
2022/01/28 12:16:13;;;;;;;48.80;18.83;;;;;;;4.86;100.00;99938.66;5034236;28;20033;-77
2022/01/28 12:18:53;;;;;;;37.75;17.10;;;;;;;4.79;100.00;99942.22;5034072;28;20465;-77
2022/01/28 12:21:27;;;;;;;24.30;10.88;;;;;;;4.81;100.00;99950.81;5033686;28;20129;-76
2022/01/28 12:24:17;;;;;;;19.27;7.35;;;;;;;4.84;100.00;99958.47;5034076;28;20075;-76
2022/01/28 12:27:07;;;;;;;20.23;7.85;;;;;;;4.84;100.00;99948.16;4992048;28;20487;-76
2022/01/28 12:29:37;;;;;;;14.30;5.72;;;;;;;4.90;100.00;99955.78;4991767;28;20443;-77
2022/01/28 12:32:04;;;;;;;37.75;13.48;;;;;;;4.85;100.00;99963.63;4991892;28;20047;-77
2022/01/28 12:34:30;;;;;;;28.60;13.77;;;;;;;4.91;100.00;99970.38;4991690;28;20031;-77
2022/01/28 12:36:58;;;;;;;16.27;8.77;;;;;;;4.97;100.00;99965.09;4991916;28;20038;-76
2022/01/28 12:39:38;;;;;;;23.42;7.75;;;;;;;5.02;100.00;99957.28;4987630;28;20033;-76
2022/01/28 12:42:22;;;;;;;18.58;7.57;;;;;;;4.98;100.00;99965.09;4991828;28;20034;-77
2022/01/28 12:44:53;;;;;;;19.27;6.82;;;;;;;4.88;100.00;99952.38;4991721;28;20044;-77
2022/01/28 12:47:19;;;;;;;17.23;5.50;;;;;;;4.71;100.00;99935.47;4991660;28;20459;-76
2022/01/28 12:49:46;;;;;;;15.15;5.97;;;;;;;4.78;100.00;99954.28;4991634;28;20385;-77
2022/01/28 12:52:12;;;;;;;9.88;3.97;;;;;;;4.79;100.00;99968.88;4991642;28;20039;-76
2022/01/28 12:54:43;;;;;;;10.93;4.47;;;;;;;4.77;100.00;99968.06;4991432;28;20057;-77
2022/01/28 12:57:13;;;;;;;;;;;;;;;4.87;100.00;99992.81;4991899;28;20507;-77
2022/01/28 12:59:39;;;;;;;14.85;5.85;;;;;;;4.81;100.00;99989.50;4975048;28;19918;-77
2022/01/28 13:02:07;;;;;;;16.90;6.72;;;;;;;4.71;100.00;99983.63;4991456;28;20125;-76
2022/01/28 13:04:49;;;;;;;15.32;5.65;;;;;;;4.73;100.00;99992.22;5019388;28;20053;-77
2022/01/28 13:09:53;;;;;;;19.20;6.28;;;;;;;4.60;100.00;100001.06;5033301;28;20044;-77